createdAt,value
2018-04-27T00:00:08.150Z,10.30
2018-04-27T00:01:08.098Z,10.30
2018-04-27T00:02:08.049Z,10.32
2018-04-27T00:03:08.003Z,10.27
2018-04-27T00:04:07.953Z,10.29
2018-04-27T00:05:07.909Z,10.17
2018-04-27T00:06:07.856Z,10.23
2018-04-27T00:07:07.808Z,10.26
2018-04-27T00:08:07.760Z,10.12
2018-04-27T00:09:07.712Z,10.12
2018-04-27T00:10:07.662Z,10.12
2018-04-27T00:11:07.614Z,10.02
2018-04-27T00:12:07.566Z,9.99
2018-04-27T00:13:07.521Z,10.08
2018-04-27T00:14:07.469Z,10.08
2018-04-27T00:15:07.423Z,9.90
2018-04-27T00:16:07.372Z,9.90
2018-04-27T00:17:07.324Z,9.93
2018-04-27T00:18:07.275Z,9.84
2018-04-27T00:19:07.228Z,9.75
2018-04-27T00:20:07.181Z,9.78
2018-04-27T00:21:07.130Z,9.84
2018-04-27T00:22:07.083Z,9.89
2018-04-27T00:23:07.042Z,10.01
2018-04-27T00:24:06.985Z,9.99
2018-04-27T00:25:06.936Z,9.97
2018-04-27T00:26:06.887Z,9.97
2018-04-27T00:27:06.839Z,10.17
2018-04-27T00:28:06.790Z,10.18
2018-04-27T00:29:06.742Z,10.18
2018-04-27T00:30:06.692Z,10.23
2018-04-27T00:31:06.644Z,10.30
2018-04-27T00:32:06.597Z,10.30
2018-04-27T00:33:06.549Z,10.30
2018-04-27T00:34:06.502Z,10.32
2018-04-27T00:35:06.451Z,10.41
2018-04-27T00:36:06.404Z,10.34
2018-04-27T00:37:06.356Z,10.44
2018-04-27T00:38:06.307Z,10.40
2018-04-27T00:39:06.259Z,10.42
2018-04-27T00:40:06.211Z,10.40
2018-04-27T00:41:06.165Z,10.42
2018-04-27T00:42:06.114Z,10.38
2018-04-27T00:43:06.068Z,10.42
2018-04-27T00:44:06.018Z,10.40
2018-04-27T00:45:05.970Z,10.33
2018-04-27T00:46:05.921Z,10.30
2018-04-27T00:47:05.872Z,10.29
2018-04-27T00:48:05.824Z,10.30
2018-04-27T00:49:05.783Z,10.27
2018-04-27T00:50:05.733Z,10.33
2018-04-27T00:51:05.683Z,10.30
2018-04-27T00:52:05.637Z,10.26
2018-04-27T00:53:05.583Z,10.38
2018-04-27T00:54:05.533Z,10.30
2018-04-27T00:55:05.485Z,10.26
2018-04-27T00:56:05.437Z,10.27
2018-04-27T00:57:05.389Z,10.34
2018-04-27T00:58:05.341Z,10.25
2018-04-27T00:59:05.292Z,10.26
2018-04-27T01:00:05.244Z,10.27
2018-04-27T01:01:05.196Z,10.26
2018-04-27T01:02:05.153Z,10.22
2018-04-27T01:03:05.099Z,10.20
2018-04-27T01:04:05.051Z,10.07
2018-04-27T01:05:05.003Z,10.07
2018-04-27T01:06:04.954Z,10.02
2018-04-27T01:07:04.913Z,10.01
2018-04-27T01:08:04.858Z,10.08
2018-04-27T01:09:04.810Z,10.01
2018-04-27T01:10:04.764Z,9.93
2018-04-27T01:11:04.714Z,9.91
2018-04-27T01:12:04.665Z,9.90
2018-04-27T01:13:04.617Z,9.81
2018-04-27T01:14:04.568Z,9.75
2018-04-27T01:15:04.520Z,9.71
2018-04-27T01:16:04.471Z,9.71
2018-04-27T01:17:04.430Z,9.65
2018-04-27T01:18:04.374Z,9.68
2018-04-27T01:19:04.326Z,9.58
2018-04-27T01:20:04.277Z,9.54
2018-04-27T01:21:04.229Z,9.54
2018-04-27T01:22:04.180Z,9.54
2018-04-27T01:23:04.138Z,9.40
2018-04-27T01:24:04.083Z,9.47
2018-04-27T01:25:04.035Z,9.48
2018-04-27T01:26:03.985Z,9.42
2018-04-27T01:27:03.937Z,9.36
2018-04-27T01:28:03.889Z,9.43
2018-04-27T01:29:03.839Z,9.40
2018-04-27T01:30:03.794Z,9.42
2018-04-27T01:31:03.741Z,9.33
2018-04-27T01:32:03.695Z,9.29
2018-04-27T01:33:03.649Z,9.36
2018-04-27T01:34:03.594Z,9.28
2018-04-27T01:35:03.545Z,9.31
2018-04-27T01:36:03.496Z,9.43
2018-04-27T01:37:03.447Z,9.29
2018-04-27T01:38:03.398Z,9.35
2018-04-27T01:39:03.349Z,9.38
2018-04-27T01:40:03.301Z,9.33
2018-04-27T01:41:03.252Z,9.31
2018-04-27T01:42:03.205Z,9.32
2018-04-27T01:43:03.153Z,9.33
2018-04-27T01:44:03.105Z,9.28
2018-04-27T01:45:03.057Z,9.21
2018-04-27T01:46:03.007Z,9.20
2018-04-27T01:47:02.963Z,9.18
2018-04-27T01:48:02.912Z,9.18
2018-04-27T01:49:02.866Z,9.15
2018-04-27T01:50:02.817Z,9.21
2018-04-27T01:51:02.763Z,9.20
2018-04-27T01:52:02.714Z,9.20
2018-04-27T01:53:02.666Z,9.04
2018-04-27T01:54:02.616Z,9.10
2018-04-27T01:55:02.617Z,9.01
2018-04-27T01:56:02.518Z,9.05
2018-04-27T01:57:02.470Z,9.02
2018-04-27T01:58:02.420Z,8.96
2018-04-27T01:59:02.376Z,8.99
2018-04-27T02:00:02.322Z,8.98
2018-04-27T02:01:02.273Z,9.01
2018-04-27T02:02:02.223Z,8.94
2018-04-27T02:03:02.174Z,8.94
2018-04-27T02:04:02.124Z,8.89
2018-04-27T02:05:02.076Z,8.92
2018-04-27T02:06:02.126Z,8.94
2018-04-27T02:07:01.977Z,8.91
2018-04-27T02:08:01.928Z,8.95
2018-04-27T02:09:01.879Z,8.86
2018-04-27T02:10:01.833Z,8.83
2018-04-27T02:11:01.780Z,8.87
2018-04-27T02:12:01.731Z,8.84
2018-04-27T02:13:01.732Z,8.91
2018-04-27T02:14:01.632Z,8.81
2018-04-27T02:15:01.583Z,8.76
2018-04-27T02:16:01.572Z,8.84
2018-04-27T02:17:01.485Z,8.76
2018-04-27T02:18:01.435Z,8.70
2018-04-27T02:19:01.386Z,8.66
2018-04-27T02:20:01.336Z,8.65
2018-04-27T02:21:01.297Z,8.66
2018-04-27T02:22:01.240Z,8.74
2018-04-27T02:23:01.188Z,8.70
2018-04-27T02:24:01.140Z,8.70
2018-04-27T02:25:01.141Z,8.66
2018-04-27T02:26:01.040Z,8.65
2018-04-27T02:27:00.991Z,8.68
2018-04-27T02:28:00.942Z,8.68
2018-04-27T02:29:00.893Z,8.66
2018-04-27T02:30:00.843Z,8.70
2018-04-27T02:31:00.794Z,8.74
2018-04-27T02:32:00.747Z,8.70
2018-04-27T02:33:00.696Z,8.66
2018-04-27T02:34:00.646Z,8.62
2018-04-27T02:35:00.602Z,8.73
2018-04-27T02:36:00.550Z,8.61
2018-04-27T02:37:00.497Z,8.63
2018-04-27T02:38:00.446Z,8.66
2018-04-27T02:39:00.398Z,8.61
2018-04-27T02:40:00.348Z,8.63
2018-04-27T02:41:00.299Z,8.63
2018-04-27T02:42:00.249Z,8.56
2018-04-27T02:43:00.209Z,8.55
2018-04-27T02:44:00.157Z,8.59
2018-04-27T02:45:00.101Z,8.47
2018-04-27T02:46:00.051Z,8.45
2018-04-27T02:47:00.001Z,8.48
2018-04-27T02:48:00.055Z,8.48
2018-04-27T02:48:59.902Z,8.53
2018-04-27T02:49:59.853Z,8.55
2018-04-27T02:50:59.803Z,8.48
2018-04-27T02:51:59.754Z,8.52
2018-04-27T02:52:59.707Z,8.52
2018-04-27T02:53:59.659Z,8.41
2018-04-27T02:54:59.605Z,8.40
2018-04-27T02:55:59.556Z,8.41
2018-04-27T02:56:59.509Z,8.40
2018-04-27T02:57:59.455Z,8.38
2018-04-27T02:58:59.490Z,8.41
2018-04-27T02:59:59.359Z,8.38
2018-04-27T03:00:59.307Z,8.33
2018-04-27T03:01:59.257Z,8.33
2018-04-27T03:02:59.207Z,8.33
2018-04-27T03:03:59.161Z,8.34
2018-04-27T03:04:59.108Z,8.29
2018-04-27T03:05:59.059Z,8.33
2018-04-27T03:06:59.010Z,8.26
2018-04-27T03:07:58.959Z,8.29
2018-04-27T03:08:58.910Z,8.23
2018-04-27T03:09:58.859Z,8.20
2018-04-27T03:10:58.809Z,8.12
2018-04-27T03:11:58.760Z,8.19
2018-04-27T03:12:58.710Z,8.18
2018-04-27T03:13:58.662Z,8.16
2018-04-27T03:14:58.610Z,8.19
2018-04-27T03:15:58.560Z,8.22
2018-04-27T03:16:58.511Z,8.15
2018-04-27T03:17:58.510Z,8.15
2018-04-27T03:18:58.411Z,8.12
2018-04-27T03:19:58.368Z,8.18
2018-04-27T03:20:58.311Z,8.15
2018-04-27T03:21:58.261Z,8.11
2018-04-27T03:22:58.210Z,8.18
2018-04-27T03:23:58.279Z,8.23
2018-04-27T03:24:58.113Z,8.15
2018-04-27T03:25:58.062Z,8.05
2018-04-27T03:26:58.012Z,8.11
2018-04-27T03:27:57.967Z,8.22
2018-04-27T03:28:57.917Z,8.12
2018-04-27T03:29:57.863Z,8.11
2018-04-27T03:30:57.817Z,8.04
2018-04-27T03:31:57.767Z,8.19
2018-04-27T03:32:57.714Z,8.08
2018-04-27T03:33:57.665Z,8.04
2018-04-27T03:34:57.615Z,8.08
2018-04-27T03:35:57.565Z,8.19
2018-04-27T03:36:57.516Z,8.12
2018-04-27T03:37:57.465Z,8.10
2018-04-27T03:38:57.416Z,8.10
2018-04-27T03:39:57.366Z,8.16
2018-04-27T03:40:57.317Z,8.10
2018-04-27T03:41:57.266Z,8.08
2018-04-27T03:42:57.217Z,8.16
2018-04-27T03:43:57.171Z,8.11
2018-04-27T03:44:57.118Z,8.05
2018-04-27T03:45:57.067Z,8.11
2018-04-27T03:46:57.018Z,8.16
2018-04-27T03:47:56.968Z,8.01
2018-04-27T03:48:56.918Z,8.02
2018-04-27T03:49:56.867Z,8.10
2018-04-27T03:50:56.818Z,8.20
2018-04-27T03:51:56.818Z,8.19
2018-04-27T03:52:56.719Z,8.15
2018-04-27T03:53:56.669Z,8.12
2018-04-27T03:54:56.619Z,8.12
2018-04-27T03:55:56.570Z,8.19
2018-04-27T03:56:56.521Z,8.19
2018-04-27T03:57:56.471Z,8.20
2018-04-27T03:58:56.421Z,8.19
2018-04-27T03:59:56.371Z,8.28
2018-04-27T04:00:56.327Z,8.23
2018-04-27T04:01:56.273Z,8.26
2018-04-27T04:02:56.223Z,8.20
2018-04-27T04:03:56.173Z,8.25
2018-04-27T04:04:56.124Z,8.36
2018-04-27T04:05:56.074Z,8.37
2018-04-27T04:06:56.027Z,8.34
2018-04-27T04:07:55.976Z,8.36
2018-04-27T04:08:55.926Z,8.40
2018-04-27T04:09:55.876Z,8.52
2018-04-27T04:10:55.827Z,8.52
2018-04-27T04:11:55.779Z,8.47
2018-04-27T04:12:55.728Z,8.55
2018-04-27T04:13:55.677Z,8.47
2018-04-27T04:14:55.634Z,8.52
2018-04-27T04:15:55.588Z,8.47
2018-04-27T04:16:55.530Z,8.50
2018-04-27T04:17:55.479Z,8.58
2018-04-27T04:18:55.430Z,8.63
2018-04-27T04:19:55.381Z,8.63
2018-04-27T04:20:55.332Z,8.56
2018-04-27T04:21:55.282Z,8.62
2018-04-27T04:22:55.232Z,8.68
2018-04-27T04:23:55.183Z,8.66
2018-04-27T04:24:55.134Z,8.68
2018-04-27T04:25:55.085Z,8.73
2018-04-27T04:26:55.034Z,8.73
2018-04-27T04:27:54.985Z,8.71
2018-04-27T04:28:54.938Z,8.77
2018-04-27T04:29:54.886Z,8.79
2018-04-27T04:30:54.837Z,8.77
2018-04-27T04:31:54.787Z,8.83
2018-04-27T04:32:54.744Z,8.79
2018-04-27T04:33:54.688Z,8.99
2018-04-27T04:34:54.639Z,8.98
2018-04-27T04:35:54.590Z,8.99
2018-04-27T04:36:54.541Z,8.99
2018-04-27T04:37:54.492Z,8.98
2018-04-27T04:38:54.444Z,9.10
2018-04-27T04:39:54.394Z,9.02
2018-04-27T04:40:54.345Z,9.17
2018-04-27T04:41:54.295Z,9.17
2018-04-27T04:42:54.245Z,9.29
2018-04-27T04:43:54.196Z,9.31
2018-04-27T04:44:54.148Z,9.35
2018-04-27T04:45:54.107Z,9.42
2018-04-27T04:46:54.050Z,9.51
2018-04-27T04:47:54.001Z,9.64
2018-04-27T04:48:53.953Z,9.72
2018-04-27T04:49:53.902Z,9.86
2018-04-27T04:50:53.854Z,9.91
2018-04-27T04:51:53.805Z,10.07
2018-04-27T04:52:53.764Z,10.09
2018-04-27T04:53:53.707Z,10.08
2018-04-27T04:54:53.661Z,10.25
2018-04-27T04:55:53.611Z,10.18
2018-04-27T04:56:53.563Z,10.22
2018-04-27T04:57:53.513Z,10.25
2018-04-27T04:58:53.467Z,10.25
2018-04-27T04:59:53.420Z,10.25
2018-04-27T05:00:53.369Z,10.26
2018-04-27T05:01:53.323Z,10.26
2018-04-27T05:02:53.275Z,10.27
2018-04-27T05:03:53.223Z,10.20
2018-04-27T05:04:53.176Z,10.23
2018-04-27T05:05:53.131Z,10.17
2018-04-27T05:06:53.083Z,10.26
2018-04-27T05:07:53.031Z,10.23
2018-04-27T05:08:52.983Z,10.29
2018-04-27T05:09:52.934Z,10.25
2018-04-27T05:10:52.912Z,10.26
2018-04-27T05:11:52.838Z,10.23
2018-04-27T05:12:52.789Z,10.32
2018-04-27T05:13:52.740Z,10.30
2018-04-27T05:14:52.692Z,10.27
2018-04-27T05:15:52.644Z,10.44
2018-04-27T05:16:52.597Z,10.42
2018-04-27T05:17:52.547Z,10.52
2018-04-27T05:18:52.501Z,10.64
2018-04-27T05:19:52.452Z,10.76
2018-04-27T05:20:52.403Z,10.96
2018-04-27T05:21:52.355Z,11.14
2018-04-27T05:22:52.307Z,11.40
2018-04-27T05:23:52.258Z,11.85
2018-04-27T05:24:52.211Z,12.49
2018-04-27T05:25:52.162Z,13.30
2018-04-27T05:26:52.115Z,14.07
2018-04-27T05:27:52.067Z,14.84
2018-04-27T05:28:52.021Z,15.46
2018-04-27T05:29:51.974Z,16.12
2018-04-27T05:30:51.930Z,16.63
2018-04-27T05:31:51.882Z,16.96
2018-04-27T05:32:51.836Z,17.22
2018-04-27T05:33:51.789Z,17.40
2018-04-27T05:34:51.795Z,17.64
2018-04-27T05:35:51.701Z,17.71
2018-04-27T05:36:51.656Z,17.92
2018-04-27T05:37:51.612Z,18.00
2018-04-27T05:38:51.583Z,18.21
2018-04-27T05:39:51.523Z,18.33
2018-04-27T05:40:51.479Z,18.52
2018-04-27T05:41:51.435Z,18.66
2018-04-27T05:42:51.392Z,18.87
2018-04-27T05:43:51.348Z,19.07
2018-04-27T05:44:51.306Z,19.31
2018-04-27T05:45:51.262Z,19.54
2018-04-27T05:46:51.219Z,19.74
2018-04-27T05:47:51.177Z,19.81
2018-04-27T05:48:51.135Z,20.01
2018-04-27T05:49:51.091Z,20.20
2018-04-27T05:50:51.050Z,20.48
2018-04-27T05:51:51.008Z,20.52
2018-04-27T05:52:50.967Z,20.72
2018-04-27T05:53:50.923Z,20.57
2018-04-27T05:54:50.883Z,20.50
2018-04-27T05:55:50.842Z,20.50
2018-04-27T05:56:50.801Z,20.48
2018-04-27T05:57:50.762Z,20.36
2018-04-27T05:58:50.720Z,20.41
2018-04-27T05:59:50.678Z,20.51
2018-04-27T06:00:50.637Z,20.54
2018-04-27T06:01:50.597Z,20.55
2018-04-27T06:02:50.554Z,20.66
2018-04-27T06:03:50.513Z,20.69
2018-04-27T06:04:50.473Z,20.70
2018-04-27T06:05:50.431Z,20.70
2018-04-27T06:06:50.391Z,20.67
2018-04-27T06:07:50.401Z,20.72
2018-04-27T06:08:50.310Z,20.76
2018-04-27T06:09:50.268Z,20.84
2018-04-27T06:10:50.238Z,20.98
2018-04-27T06:11:50.189Z,20.92
2018-04-27T06:12:50.152Z,21.06
2018-04-27T06:13:50.182Z,21.07
2018-04-27T06:14:50.069Z,21.34
2018-04-27T06:15:50.030Z,21.62
2018-04-27T06:16:49.992Z,21.83
2018-04-27T06:17:49.947Z,21.98
2018-04-27T06:18:49.909Z,22.06
2018-04-27T06:19:49.867Z,22.31
2018-04-27T06:20:49.929Z,22.49
2018-04-27T06:21:49.789Z,22.45
2018-04-27T06:22:49.749Z,22.52
2018-04-27T06:23:49.712Z,22.46
2018-04-27T06:24:49.673Z,22.46
2018-04-27T06:25:49.667Z,22.45
2018-04-27T06:26:49.593Z,22.52
2018-04-27T06:27:49.553Z,22.58
2018-04-27T06:28:49.514Z,22.46
2018-04-27T06:29:49.474Z,22.27
2018-04-27T06:30:49.435Z,21.99
2018-04-27T06:31:49.439Z,21.91
2018-04-27T06:32:49.358Z,21.62
2018-04-27T06:33:49.317Z,21.42
2018-04-27T06:34:49.378Z,21.35
2018-04-27T06:35:49.240Z,21.52
2018-04-27T06:36:49.201Z,21.75
2018-04-27T06:37:49.160Z,21.92
2018-04-27T06:38:49.121Z,22.22
2018-04-27T06:39:49.081Z,22.52
2018-04-27T06:40:49.043Z,22.64
2018-04-27T06:41:49.003Z,22.57
2018-04-27T06:42:48.964Z,22.67
2018-04-27T06:43:48.925Z,22.79
2018-04-27T06:44:48.887Z,22.94
2018-04-27T06:45:48.845Z,23.07
2018-04-27T06:46:48.808Z,23.54
2018-04-27T06:47:48.775Z,23.87
2018-04-27T06:48:48.731Z,24.18
2018-04-27T06:49:48.945Z,24.46
2018-04-27T06:50:48.655Z,24.81
2018-04-27T06:51:48.616Z,25.10
2018-04-27T06:52:48.580Z,25.45
2018-04-27T06:53:48.542Z,25.65
2018-04-27T06:54:48.505Z,25.82
2018-04-27T06:55:48.468Z,25.97
2018-04-27T06:56:48.431Z,26.17
2018-04-27T06:57:48.397Z,26.09
2018-04-27T06:58:48.355Z,25.99
2018-04-27T06:59:48.321Z,26.18
2018-04-27T07:00:48.288Z,26.51
2018-04-27T07:01:48.246Z,26.87
2018-04-27T07:02:48.212Z,27.28
2018-04-27T07:03:48.178Z,27.54
2018-04-27T07:04:48.140Z,27.84
2018-04-27T07:05:48.107Z,28.09
2018-04-27T07:06:48.068Z,28.29
2018-04-27T07:07:48.035Z,28.58
2018-04-27T07:08:48.002Z,28.83
2018-04-27T07:09:47.965Z,29.16
2018-04-27T07:10:47.928Z,29.24
2018-04-27T07:11:47.895Z,29.30
2018-04-27T07:12:47.861Z,29.41
2018-04-27T07:13:47.828Z,29.55
2018-04-27T07:14:47.793Z,29.64
2018-04-27T07:15:47.757Z,29.68
2018-04-27T07:16:47.742Z,29.86
2018-04-27T07:17:47.690Z,29.92
2018-04-27T07:18:47.656Z,30.01
2018-04-27T07:19:47.662Z,29.98
2018-04-27T07:20:47.588Z,30.17
2018-04-27T07:21:47.554Z,30.24
2018-04-27T07:22:47.520Z,30.51
2018-04-27T07:23:47.487Z,30.70
2018-04-27T07:24:47.454Z,30.79
2018-04-27T07:25:47.422Z,30.70
2018-04-27T07:26:47.386Z,30.62
2018-04-27T07:27:47.353Z,30.62
2018-04-27T07:28:47.321Z,30.61
2018-04-27T07:29:47.285Z,30.58
2018-04-27T07:30:47.253Z,30.65
2018-04-27T07:31:47.221Z,30.60
2018-04-27T07:32:47.188Z,30.53
2018-04-27T07:33:47.153Z,30.43
2018-04-27T07:34:47.127Z,30.20
2018-04-27T07:35:47.088Z,30.29
2018-04-27T07:36:47.056Z,30.51
2018-04-27T07:37:47.024Z,30.62
2018-04-27T07:38:46.988Z,30.70
2018-04-27T07:39:46.955Z,30.95
2018-04-27T07:40:46.950Z,31.06
2018-04-27T07:41:46.889Z,31.26
2018-04-27T07:42:46.856Z,31.46
2018-04-27T07:43:46.823Z,31.78
2018-04-27T07:44:46.792Z,31.96
2018-04-27T07:45:46.757Z,32.14
2018-04-27T07:46:46.730Z,32.18
2018-04-27T07:47:46.693Z,32.11
2018-04-27T07:48:46.660Z,31.91
2018-04-27T07:49:46.627Z,31.57
2018-04-27T07:50:46.595Z,31.09
2018-04-27T07:51:46.562Z,31.01
2018-04-27T07:52:46.530Z,31.17
2018-04-27T07:53:46.503Z,31.34
2018-04-27T07:54:46.464Z,31.54
2018-04-27T07:55:46.435Z,31.43
2018-04-27T07:56:46.403Z,31.48
2018-04-27T07:57:46.365Z,31.80
2018-04-27T07:58:46.334Z,32.26
2018-04-27T07:59:46.306Z,32.52
2018-04-27T08:00:46.272Z,32.99
2018-04-27T08:01:46.238Z,33.16
2018-04-27T08:02:46.206Z,33.34
2018-04-27T08:03:46.176Z,33.44
2018-04-27T08:04:46.144Z,33.50
2018-04-27T08:05:46.112Z,33.84
2018-04-27T08:06:46.080Z,33.91
2018-04-27T08:07:46.050Z,34.06
2018-04-27T08:08:46.036Z,34.00
2018-04-27T08:09:45.987Z,34.24
2018-04-27T08:10:45.957Z,34.49
2018-04-27T08:11:45.926Z,34.96
2018-04-27T08:12:45.895Z,35.31
2018-04-27T08:13:45.864Z,35.63
2018-04-27T08:14:45.834Z,35.84
2018-04-27T08:15:45.803Z,35.94
2018-04-27T08:16:45.773Z,36.12
2018-04-27T08:17:45.741Z,36.17
2018-04-27T08:18:45.711Z,36.27
2018-04-27T08:19:45.681Z,36.44
2018-04-27T08:20:45.652Z,36.71
2018-04-27T08:21:45.621Z,36.81
2018-04-27T08:22:45.589Z,36.88
2018-04-27T08:23:45.569Z,36.99
2018-04-27T08:24:45.531Z,37.32
2018-04-27T08:25:45.501Z,37.69
2018-04-27T08:26:45.472Z,37.89
2018-04-27T08:27:45.443Z,38.09
2018-04-27T08:28:45.414Z,37.67
2018-04-27T08:29:45.383Z,37.28
2018-04-27T08:30:45.354Z,37.12
2018-04-27T08:31:45.325Z,36.78
2018-04-27T08:32:45.296Z,36.57
2018-04-27T08:33:45.316Z,36.29
2018-04-27T08:34:45.236Z,35.96
2018-04-27T08:35:45.209Z,35.71
2018-04-27T08:36:45.178Z,35.58
2018-04-27T08:37:45.396Z,35.48
2018-04-27T08:38:45.117Z,35.45
2018-04-27T08:39:45.093Z,35.36
2018-04-27T08:40:45.057Z,35.37
2018-04-27T08:41:45.027Z,35.59
2018-04-27T08:42:44.995Z,35.56
2018-04-27T08:43:45.030Z,35.80
2018-04-27T08:44:44.945Z,35.85
2018-04-27T08:45:44.911Z,35.74
2018-04-27T08:46:44.877Z,35.82
2018-04-27T08:47:44.849Z,35.58
2018-04-27T08:48:44.822Z,35.48
2018-04-27T08:49:44.788Z,35.60
2018-04-27T08:50:44.757Z,35.68
2018-04-27T08:51:44.729Z,36.03
2018-04-27T08:52:44.699Z,36.29
2018-04-27T08:53:44.669Z,36.17
2018-04-27T08:54:44.639Z,35.99
2018-04-27T08:55:44.610Z,35.90
2018-04-27T08:56:44.581Z,35.84
2018-04-27T08:57:44.550Z,35.75
2018-04-27T08:58:44.520Z,35.52
2018-04-27T08:59:44.490Z,35.45
2018-04-27T09:00:44.516Z,35.38
2018-04-27T09:01:44.432Z,35.36
2018-04-27T09:02:44.493Z,35.43
2018-04-27T09:03:44.374Z,35.65
2018-04-27T09:04:44.345Z,35.82
2018-04-27T09:05:44.314Z,36.05
2018-04-27T09:06:44.285Z,35.81
2018-04-27T09:07:44.256Z,35.68
2018-04-27T09:08:44.227Z,35.59
2018-04-27T09:09:44.198Z,35.59
2018-04-27T09:10:44.168Z,35.85
2018-04-27T09:11:44.141Z,35.65
2018-04-27T09:12:44.112Z,35.10
2018-04-27T09:13:44.080Z,34.10
2018-04-27T09:14:44.053Z,33.68
2018-04-27T09:15:44.021Z,33.57
2018-04-27T09:16:43.989Z,33.34
2018-04-27T09:17:43.960Z,33.04
2018-04-27T09:18:43.931Z,33.03
2018-04-27T09:19:43.899Z,33.16
2018-04-27T09:20:43.872Z,33.50
2018-04-27T09:21:43.837Z,34.10
2018-04-27T09:22:43.809Z,34.34
2018-04-27T09:23:43.778Z,34.31
2018-04-27T09:24:43.747Z,34.06
2018-04-27T09:25:43.716Z,33.98
2018-04-27T09:26:43.686Z,34.08
2018-04-27T09:27:43.655Z,34.46
2018-04-27T09:28:43.626Z,34.56
2018-04-27T09:29:43.599Z,34.84
2018-04-27T09:30:43.565Z,34.99
2018-04-27T09:31:43.534Z,35.22
2018-04-27T09:32:43.505Z,35.26
2018-04-27T09:33:43.476Z,34.82
2018-04-27T09:34:43.447Z,34.15
2018-04-27T09:35:43.413Z,34.00
2018-04-27T09:36:43.383Z,33.87
2018-04-27T09:37:43.403Z,33.73
2018-04-27T09:38:43.323Z,33.61
2018-04-27T09:39:43.292Z,33.07
2018-04-27T09:40:43.342Z,32.29
2018-04-27T09:41:43.231Z,31.36
2018-04-27T09:42:43.212Z,30.60
2018-04-27T09:43:43.166Z,29.92
2018-04-27T09:44:43.135Z,29.42
2018-04-27T09:45:43.152Z,28.90
2018-04-27T09:46:43.069Z,28.36
2018-04-27T09:47:43.040Z,27.88
2018-04-27T09:48:43.005Z,27.51
2018-04-27T09:49:42.970Z,27.07
2018-04-27T09:50:43.006Z,26.75
2018-04-27T09:51:42.903Z,26.47
2018-04-27T09:52:42.869Z,26.28
2018-04-27T09:53:42.834Z,25.95
2018-04-27T09:54:42.800Z,25.73
2018-04-27T09:55:42.765Z,25.52
2018-04-27T09:56:42.731Z,25.36
2018-04-27T09:57:42.795Z,25.25
2018-04-27T09:58:42.660Z,25.02
2018-04-27T09:59:42.628Z,24.95
2018-04-27T10:00:42.589Z,24.90
2018-04-27T10:01:42.551Z,24.87
2018-04-27T10:02:42.517Z,24.76
2018-04-27T10:03:42.480Z,24.67
2018-04-27T10:04:42.443Z,24.71
2018-04-27T10:05:42.474Z,24.67
2018-04-27T10:06:42.369Z,24.47
2018-04-27T10:07:42.333Z,24.39
2018-04-27T10:08:42.296Z,24.12
2018-04-27T10:09:42.259Z,23.91
2018-04-27T10:10:42.221Z,23.73
2018-04-27T10:11:42.183Z,23.46
2018-04-27T10:12:42.147Z,23.33
2018-04-27T10:13:42.107Z,23.16
2018-04-27T10:14:42.069Z,22.97
2018-04-27T10:15:42.030Z,22.82
2018-04-27T10:16:41.992Z,22.77
2018-04-27T10:17:41.956Z,22.58
2018-04-27T10:18:41.913Z,22.49
2018-04-27T10:19:41.874Z,22.45
2018-04-27T10:20:41.835Z,22.45
2018-04-27T10:21:41.795Z,22.37
2018-04-27T10:22:41.756Z,22.36
2018-04-27T10:23:41.716Z,22.37
2018-04-27T10:24:41.676Z,22.42
2018-04-27T10:25:41.636Z,22.31
2018-04-27T10:26:41.596Z,22.33
2018-04-27T10:27:41.556Z,22.24
2018-04-27T10:28:41.517Z,22.17
2018-04-27T10:29:41.477Z,22.12
2018-04-27T10:30:41.437Z,21.92
2018-04-27T10:31:41.396Z,21.98
2018-04-27T10:32:41.356Z,22.06
2018-04-27T10:33:41.315Z,21.96
2018-04-27T10:34:41.275Z,21.99
2018-04-27T10:35:41.234Z,21.96
2018-04-27T10:36:41.194Z,21.98
2018-04-27T10:37:41.154Z,21.96
2018-04-27T10:38:41.111Z,22.00
2018-04-27T10:39:41.072Z,21.83
2018-04-27T10:40:41.032Z,21.77
2018-04-27T10:41:40.990Z,21.67
2018-04-27T10:42:40.950Z,21.71
2018-04-27T10:43:40.909Z,21.54
2018-04-27T10:44:40.869Z,21.50
2018-04-27T10:45:40.827Z,21.50
2018-04-27T10:46:40.788Z,21.52
2018-04-27T10:47:40.747Z,21.56
2018-04-27T10:48:40.708Z,21.72
2018-04-27T10:49:40.663Z,21.90
2018-04-27T10:50:40.625Z,22.03
2018-04-27T10:51:40.583Z,22.00
2018-04-27T10:52:40.544Z,22.05
2018-04-27T10:53:40.501Z,21.98
2018-04-27T10:54:40.462Z,21.96
2018-04-27T10:55:40.421Z,21.91
2018-04-27T10:56:40.381Z,21.91
2018-04-27T10:57:40.339Z,21.83
2018-04-27T10:58:40.300Z,21.94
2018-04-27T10:59:40.258Z,22.03
2018-04-27T11:00:40.217Z,22.02
2018-04-27T11:01:40.176Z,21.82
2018-04-27T11:02:40.136Z,21.90
2018-04-27T11:03:40.098Z,21.91
2018-04-27T11:04:40.055Z,21.82
2018-04-27T11:05:40.013Z,21.80
2018-04-27T11:06:39.973Z,21.82
2018-04-27T11:07:39.932Z,21.82
2018-04-27T11:08:39.892Z,21.90
2018-04-27T11:09:39.854Z,21.88
2018-04-27T11:10:39.810Z,21.90
2018-04-27T11:11:39.770Z,21.84
2018-04-27T11:12:39.728Z,21.92
2018-04-27T11:13:39.688Z,22.14
2018-04-27T11:14:39.646Z,22.14
2018-04-27T11:15:39.612Z,22.30
2018-04-27T11:16:39.566Z,22.25
2018-04-27T11:17:39.525Z,22.24
2018-04-27T11:18:39.485Z,22.22
2018-04-27T11:19:39.444Z,22.37
2018-04-27T11:20:39.403Z,22.25
2018-04-27T11:21:39.361Z,22.27
2018-04-27T11:22:39.321Z,22.21
2018-04-27T11:23:39.281Z,22.14
2018-04-27T11:24:39.240Z,22.07
2018-04-27T11:25:39.250Z,22.03
2018-04-27T11:26:39.158Z,22.03
2018-04-27T11:27:39.123Z,22.02
2018-04-27T11:28:39.130Z,21.94
2018-04-27T11:29:39.035Z,21.84
2018-04-27T11:30:38.998Z,21.74
2018-04-27T11:31:38.959Z,21.49
2018-04-27T11:32:38.913Z,21.35
2018-04-27T11:33:38.871Z,21.35
2018-04-27T11:34:38.830Z,21.38
2018-04-27T11:35:38.790Z,21.40
2018-04-27T11:36:38.748Z,21.38
2018-04-27T11:37:38.706Z,21.40
2018-04-27T11:38:38.665Z,21.49
2018-04-27T11:39:38.626Z,21.47
2018-04-27T11:40:38.584Z,21.47
2018-04-27T11:41:38.541Z,21.53
2018-04-27T11:42:38.500Z,21.47
2018-04-27T11:43:38.466Z,21.35
2018-04-27T11:44:38.418Z,21.28
2018-04-27T11:45:38.375Z,21.14
2018-04-27T11:46:38.335Z,21.16
2018-04-27T11:47:38.334Z,21.07
2018-04-27T11:48:38.273Z,20.99
2018-04-27T11:49:38.210Z,20.79
2018-04-27T11:50:38.169Z,20.77
2018-04-27T11:51:38.128Z,20.79
2018-04-27T11:52:38.087Z,20.77
2018-04-27T11:53:38.049Z,20.80
2018-04-27T11:54:38.003Z,20.76
2018-04-27T11:55:37.961Z,20.80
2018-04-27T11:56:37.920Z,20.87
2018-04-27T11:57:37.879Z,21.01
2018-04-27T11:58:37.842Z,20.97
2018-04-27T11:59:37.794Z,21.13
2018-04-27T12:00:37.754Z,21.13
2018-04-27T12:01:37.773Z,21.14
2018-04-27T12:02:37.669Z,21.21
2018-04-27T12:03:37.672Z,21.19
2018-04-27T12:04:37.588Z,21.22
2018-04-27T12:05:37.545Z,21.32
2018-04-27T12:06:37.504Z,21.37
2018-04-27T12:07:37.463Z,21.50
2018-04-27T12:08:37.424Z,21.67
2018-04-27T12:09:37.381Z,21.80
2018-04-27T12:10:37.408Z,21.90
2018-04-27T12:11:37.298Z,21.92
2018-04-27T12:12:37.259Z,21.98
2018-04-27T12:13:37.215Z,21.98
2018-04-27T12:14:37.174Z,22.06
2018-04-27T12:15:37.133Z,22.00
2018-04-27T12:16:37.093Z,22.00
2018-04-27T12:17:37.063Z,21.98
2018-04-27T12:18:37.009Z,21.98
2018-04-27T12:19:36.968Z,21.92
2018-04-27T12:20:36.929Z,21.84
2018-04-27T12:21:36.887Z,21.83
2018-04-27T12:22:36.844Z,21.72
2018-04-27T12:23:36.803Z,21.68
2018-04-27T12:24:36.763Z,21.67
2018-04-27T12:25:36.721Z,21.54
2018-04-27T12:26:36.680Z,21.56
2018-04-27T12:27:36.639Z,21.58
2018-04-27T12:28:36.597Z,21.65
2018-04-27T12:29:36.557Z,21.65
2018-04-27T12:30:36.515Z,21.68
2018-04-27T12:31:36.590Z,21.67
2018-04-27T12:32:36.434Z,21.64
2018-04-27T12:33:36.402Z,21.54
2018-04-27T12:34:36.351Z,21.58
2018-04-27T12:35:36.310Z,21.53
2018-04-27T12:36:36.268Z,21.68
2018-04-27T12:37:36.227Z,21.68
2018-04-27T12:38:36.186Z,21.77
2018-04-27T12:39:36.145Z,21.79
2018-04-27T12:40:36.104Z,21.79
2018-04-27T12:41:36.062Z,21.75
2018-04-27T12:42:36.025Z,21.61
2018-04-27T12:43:36.085Z,21.56
2018-04-27T12:44:35.940Z,21.52
2018-04-27T12:45:35.898Z,21.42
2018-04-27T12:46:35.857Z,21.38
2018-04-27T12:47:35.815Z,21.37
2018-04-27T12:48:35.776Z,21.28
2018-04-27T12:49:35.736Z,21.19
2018-04-27T12:50:35.692Z,21.21
2018-04-27T12:51:35.651Z,21.31
2018-04-27T12:52:35.631Z,21.35
2018-04-27T12:53:35.568Z,21.38
2018-04-27T12:54:35.534Z,21.50
2018-04-27T12:55:35.486Z,21.54
2018-04-27T12:56:35.445Z,21.56
2018-04-27T12:57:35.403Z,21.56
2018-04-27T12:58:35.363Z,21.49
2018-04-27T12:59:35.323Z,21.59